createdAt,value
2018-05-13T00:01:47.392Z,19.80
2018-05-13T00:04:13.602Z,19.80
2018-05-13T00:06:40.632Z,19.70
2018-05-13T00:09:07.261Z,19.60
2018-05-13T00:11:33.835Z,19.70
2018-05-13T00:14:00.020Z,19.70
2018-05-13T00:16:26.243Z,19.70
2018-05-13T00:18:52.524Z,19.60
2018-05-13T00:21:18.737Z,19.50
2018-05-13T00:23:44.922Z,19.50
2018-05-13T00:26:11.138Z,19.40
2018-05-13T00:28:37.349Z,19.40
2018-05-13T00:31:03.581Z,19.30
2018-05-13T00:33:30.648Z,19.20
2018-05-13T00:35:56.884Z,19.10
2018-05-13T00:38:23.109Z,19.10
2018-05-13T00:40:50.185Z,19.00
2018-05-13T00:43:16.405Z,19.00
2018-05-13T00:45:42.649Z,18.90
2018-05-13T00:48:08.875Z,19.00
2018-05-13T00:50:35.197Z,18.90
2018-05-13T00:53:01.338Z,18.90
2018-05-13T00:55:27.575Z,18.90
2018-05-13T00:57:53.811Z,18.80
2018-05-13T01:00:20.066Z,18.80
2018-05-13T01:02:46.334Z,18.80
2018-05-13T01:05:12.515Z,18.90
2018-05-13T01:07:38.720Z,18.90
2018-05-13T01:10:04.972Z,18.90
2018-05-13T01:12:32.181Z,18.80
2018-05-13T01:14:58.422Z,18.90
2018-05-13T01:17:24.640Z,18.90
2018-05-13T01:19:50.913Z,18.80
2018-05-13T01:22:17.111Z,18.80
2018-05-13T01:24:43.361Z,18.80
2018-05-13T01:27:09.586Z,18.80
2018-05-13T01:29:35.807Z,18.80
2018-05-13T01:32:02.058Z,18.80
2018-05-13T01:34:28.327Z,18.80
2018-05-13T01:36:54.596Z,18.70
2018-05-13T01:39:20.827Z,18.70
2018-05-13T01:41:47.081Z,18.70
2018-05-13T01:44:13.292Z,18.70
2018-05-13T01:46:39.513Z,18.60
2018-05-13T01:49:06.525Z,18.50
2018-05-13T01:51:32.766Z,18.40
2018-05-13T01:53:58.981Z,18.40
2018-05-13T01:56:25.228Z,18.40
2018-05-13T01:58:51.455Z,18.40
2018-05-13T02:01:17.716Z,18.40
2018-05-13T02:03:43.952Z,18.40
2018-05-13T02:06:11.244Z,18.30
2018-05-13T02:08:37.473Z,18.30
2018-05-13T02:11:04.271Z,18.20
2018-05-13T02:13:30.486Z,18.10
2018-05-13T02:15:56.717Z,18.00
2018-05-13T02:18:22.941Z,17.90
2018-05-13T02:20:49.209Z,17.90
2018-05-13T02:23:15.795Z,17.90
2018-05-13T02:25:42.021Z,17.90
2018-05-13T02:28:08.229Z,17.80
2018-05-13T02:30:34.484Z,17.90
2018-05-13T02:33:00.730Z,17.90
2018-05-13T02:35:27.512Z,17.90
2018-05-13T02:37:53.729Z,17.90
2018-05-13T02:40:20.319Z,18.00
2018-05-13T02:42:46.551Z,18.00
2018-05-13T02:45:12.763Z,18.00
2018-05-13T02:47:39.010Z,18.00
2018-05-13T02:50:05.249Z,18.00
2018-05-13T02:52:31.504Z,18.00
2018-05-13T02:54:58.098Z,17.90
2018-05-13T02:57:24.348Z,18.00
2018-05-13T02:59:50.576Z,17.90
2018-05-13T03:02:16.806Z,17.90
2018-05-13T03:04:43.008Z,17.90
2018-05-13T03:07:09.246Z,18.00
2018-05-13T03:09:35.448Z,17.90
2018-05-13T03:12:01.704Z,17.90
2018-05-13T03:14:27.921Z,17.90
2018-05-13T03:16:54.187Z,17.80
2018-05-13T03:19:20.765Z,17.70
2018-05-13T03:21:46.993Z,17.70
2018-05-13T03:24:13.210Z,17.60
2018-05-13T03:26:39.438Z,17.60
2018-05-13T03:29:05.684Z,17.50
2018-05-13T03:31:31.929Z,17.40
2018-05-13T03:33:58.118Z,17.40
2018-05-13T03:36:24.375Z,17.40
2018-05-13T03:38:50.616Z,17.30
2018-05-13T03:41:16.856Z,17.40
2018-05-13T03:43:43.072Z,17.30
2018-05-13T03:46:09.286Z,17.30
2018-05-13T03:48:35.528Z,17.30
2018-05-13T03:51:01.741Z,17.30
2018-05-13T03:53:27.978Z,17.20
2018-05-13T03:55:54.193Z,17.10
2018-05-13T03:58:20.422Z,17.20
2018-05-13T04:00:46.642Z,17.10
2018-05-13T04:03:12.913Z,17.00
2018-05-13T04:05:39.195Z,17.00
2018-05-13T04:21:36.320Z,16.90
2018-05-13T04:24:02.539Z,16.90
2018-05-13T04:26:28.763Z,16.90
2018-05-13T04:28:54.986Z,16.80
2018-05-13T04:31:21.181Z,16.80
2018-05-13T04:33:47.399Z,16.80
2018-05-13T04:36:13.600Z,16.80
2018-05-13T04:38:39.834Z,16.80
2018-05-13T04:41:06.060Z,16.80
2018-05-13T04:43:32.335Z,16.80
2018-05-13T04:45:58.562Z,16.90
2018-05-13T04:48:24.814Z,16.90
2018-05-13T04:50:51.388Z,17.10
2018-05-13T04:53:17.643Z,17.10
2018-05-13T04:55:43.867Z,17.10
2018-05-13T04:58:10.115Z,17.30
2018-05-13T05:00:36.908Z,17.40
2018-05-13T05:03:03.188Z,17.50
2018-05-13T05:05:29.428Z,17.50
2018-05-13T05:07:55.820Z,17.50
2018-05-13T05:10:22.043Z,17.40
2018-05-13T05:12:48.263Z,17.40
2018-05-13T05:15:14.625Z,17.50
2018-05-13T05:17:40.874Z,17.60
2018-05-13T05:20:07.490Z,17.80
2018-05-13T05:22:33.728Z,17.80
2018-05-13T05:24:59.946Z,17.90
2018-05-13T05:27:26.189Z,17.90
2018-05-13T05:29:52.751Z,18.00
2018-05-13T05:32:19.002Z,18.10
2018-05-13T05:34:45.246Z,18.20
2018-05-13T05:37:11.510Z,18.20
2018-05-13T05:39:37.789Z,18.10
2018-05-13T05:42:04.162Z,18.10
2018-05-13T05:44:30.404Z,18.00
2018-05-13T05:46:57.098Z,18.00
2018-05-13T05:49:23.324Z,18.00
2018-05-13T05:51:49.547Z,18.10
2018-05-13T05:54:16.043Z,18.10
2018-05-13T05:56:42.383Z,18.00
2018-05-13T05:59:09.920Z,17.80
2018-05-13T06:01:36.169Z,17.70
2018-05-13T06:04:02.432Z,17.60
2018-05-13T06:06:28.691Z,17.60
2018-05-13T06:08:54.913Z,17.80
2018-05-13T06:11:22.096Z,17.80
2018-05-13T06:13:48.688Z,17.80
2018-05-13T06:16:14.906Z,17.80
2018-05-13T06:18:41.176Z,18.00
2018-05-13T06:21:07.432Z,18.00
2018-05-13T06:23:33.709Z,18.00
2018-05-13T06:25:59.967Z,18.00
2018-05-13T06:28:26.169Z,18.00
2018-05-13T06:30:52.401Z,18.00
2018-05-13T06:33:18.640Z,18.10
2018-05-13T06:35:45.909Z,18.40
2018-05-13T06:38:12.518Z,18.50
2018-05-13T06:40:38.792Z,18.50
2018-05-13T06:43:05.098Z,18.70
2018-05-13T06:45:31.769Z,18.70
2018-05-13T06:47:58.008Z,18.70
2018-05-13T06:50:24.280Z,18.70
2018-05-13T06:52:50.547Z,18.70
2018-05-13T06:55:16.862Z,18.60
2018-05-13T06:57:43.054Z,18.60
2018-05-13T07:00:10.330Z,18.70
2018-05-13T07:02:36.678Z,18.70
2018-05-13T07:05:03.367Z,18.70
2018-05-13T07:07:29.550Z,18.70
2018-05-13T07:09:55.771Z,18.80
2018-05-13T07:12:22.388Z,18.90
2018-05-13T07:14:48.608Z,18.90
2018-05-13T07:17:14.878Z,18.90
2018-05-13T07:19:41.141Z,19.00
2018-05-13T07:22:07.357Z,19.00
2018-05-13T07:24:33.625Z,18.90
2018-05-13T07:26:59.845Z,19.00
2018-05-13T07:29:26.072Z,19.00
2018-05-13T07:31:52.338Z,19.30
2018-05-13T07:34:18.606Z,19.50
2018-05-13T07:36:44.936Z,19.40
2018-05-13T07:39:11.134Z,19.40
2018-05-13T07:41:37.398Z,19.40
2018-05-13T07:44:03.641Z,19.50
2018-05-13T07:46:29.850Z,19.70
2018-05-13T07:48:56.138Z,19.90
2018-05-13T07:51:22.748Z,20.40
2018-05-13T07:53:48.943Z,20.40
2018-05-13T07:56:15.209Z,20.40
2018-05-13T07:58:41.445Z,20.60
2018-05-13T08:01:08.565Z,20.60
2018-05-13T08:03:34.814Z,20.60
2018-05-13T08:06:01.049Z,20.60
2018-05-13T08:08:27.772Z,20.70
2018-05-13T08:11:00.896Z,20.60
2018-05-13T08:13:27.153Z,20.60
2018-05-13T08:15:53.423Z,20.70
2018-05-13T08:18:19.673Z,21.00
2018-05-13T08:20:45.912Z,21.30
2018-05-13T08:23:12.171Z,21.60
2018-05-13T08:25:38.995Z,21.50
2018-05-13T08:28:05.247Z,21.30
2018-05-13T08:30:31.616Z,21.20
2018-05-13T08:32:57.862Z,21.20
2018-05-13T08:35:24.092Z,21.20
2018-05-13T08:37:50.371Z,21.20
2018-05-13T08:40:16.613Z,21.00
2018-05-13T08:42:42.836Z,20.90
2018-05-13T08:45:09.082Z,20.70
2018-05-13T08:47:35.310Z,20.60
2018-05-13T08:50:01.603Z,20.60
2018-05-13T08:52:27.864Z,20.70
2018-05-13T08:54:54.114Z,20.80
2018-05-13T08:57:20.406Z,20.90
2018-05-13T08:59:46.676Z,20.80
2018-05-13T09:02:13.298Z,21.10
2018-05-13T09:04:39.535Z,21.10
2018-05-13T09:07:05.841Z,21.10
2018-05-13T09:09:32.094Z,21.10
2018-05-13T09:11:58.314Z,21.20
2018-05-13T09:14:24.558Z,21.20
2018-05-13T09:16:50.826Z,21.20
2018-05-13T09:19:17.050Z,21.40
2018-05-13T09:21:43.291Z,21.60
2018-05-13T09:24:09.591Z,21.70
2018-05-13T09:26:35.919Z,21.60
2018-05-13T09:29:02.144Z,21.50
2018-05-13T09:31:28.398Z,21.40
2018-05-13T09:33:55.191Z,21.20
2018-05-13T09:36:21.505Z,21.10
2018-05-13T09:38:47.739Z,21.00
2018-05-13T09:41:14.919Z,21.10
2018-05-13T09:43:41.136Z,21.00
2018-05-13T09:46:07.769Z,21.20
2018-05-13T09:48:34.026Z,21.20
2018-05-13T09:51:00.278Z,21.40
2018-05-13T09:53:26.483Z,21.60
2018-05-13T09:55:52.707Z,21.70
2018-05-13T09:58:18.966Z,21.80
2018-05-13T10:00:45.228Z,22.10
2018-05-13T10:03:11.434Z,22.20
2018-05-13T10:05:37.720Z,22.40
2018-05-13T10:08:04.210Z,22.30
2018-05-13T10:10:30.745Z,22.20
2018-05-13T10:12:57.011Z,22.30
2018-05-13T10:15:23.611Z,22.20
2018-05-13T10:17:49.865Z,22.20
2018-05-13T10:20:16.470Z,22.50
2018-05-13T10:22:42.745Z,22.50
2018-05-13T10:25:09.353Z,22.80
2018-05-13T10:27:36.118Z,22.80
2018-05-13T10:30:02.406Z,22.90
2018-05-13T10:32:28.710Z,23.00
2018-05-13T10:34:54.966Z,23.10
2018-05-13T10:37:21.209Z,23.10
2018-05-13T10:39:47.430Z,22.90
2018-05-13T10:42:13.681Z,22.80
2018-05-13T10:44:39.896Z,23.00
2018-05-13T10:47:06.550Z,23.10
2018-05-13T10:49:33.492Z,23.20
2018-05-13T10:52:00.113Z,23.30
2018-05-13T10:54:26.337Z,23.30
2018-05-13T10:56:52.668Z,22.90
2018-05-13T10:59:18.846Z,22.60
2018-05-13T11:01:45.067Z,22.70
2018-05-13T11:04:11.327Z,22.70
2018-05-13T11:06:38.517Z,22.80
2018-05-13T11:09:05.144Z,23.10
2018-05-13T11:11:31.411Z,23.10
2018-05-13T11:13:57.666Z,23.70
2018-05-13T11:16:23.909Z,24.30
2018-05-13T11:18:50.196Z,24.60
2018-05-13T11:21:16.460Z,24.70
2018-05-13T11:23:42.708Z,24.80
2018-05-13T11:26:08.948Z,25.10
2018-05-13T11:28:36.171Z,25.50
2018-05-13T11:31:02.400Z,26.10
2018-05-13T11:33:28.664Z,26.50
2018-05-13T11:35:55.248Z,26.60
2018-05-13T11:38:21.519Z,26.60
2018-05-13T11:40:47.759Z,26.90
2018-05-13T11:43:14.387Z,27.60
2018-05-13T11:45:40.667Z,27.60
2018-05-13T11:48:06.915Z,27.50
2018-05-13T11:50:33.140Z,27.50
2018-05-13T11:52:59.402Z,27.70
2018-05-13T11:55:25.707Z,28.20
2018-05-13T11:57:51.963Z,28.60
2018-05-13T12:00:19.217Z,28.70
2018-05-13T12:02:45.494Z,29.20
2018-05-13T12:05:11.708Z,28.90
2018-05-13T12:07:37.954Z,29.20
2018-05-13T12:10:04.278Z,29.60
2018-05-13T12:12:30.542Z,29.80
2018-05-13T12:14:56.751Z,29.70
2018-05-13T12:17:23.035Z,29.80
2018-05-13T12:19:49.636Z,29.90
2018-05-13T12:22:15.852Z,30.00
2018-05-13T12:24:42.063Z,30.00
2018-05-13T12:27:08.258Z,29.90
2018-05-13T12:29:34.480Z,29.70
2018-05-13T12:32:01.386Z,29.80
2018-05-13T12:34:28.250Z,29.10
2018-05-13T12:36:54.458Z,28.60
2018-05-13T12:39:20.672Z,28.80
2018-05-13T12:41:46.890Z,29.40
2018-05-13T12:44:13.140Z,30.00
2018-05-13T12:46:39.360Z,30.10
2018-05-13T12:49:05.590Z,29.60
2018-05-13T12:51:31.824Z,28.80
2018-05-13T12:53:58.083Z,28.90
2018-05-13T12:56:24.665Z,29.70
2018-05-13T12:58:50.939Z,29.70
2018-05-13T13:01:17.144Z,30.00
2018-05-13T13:03:43.400Z,29.80
2018-05-13T13:06:10.019Z,28.80
2018-05-13T13:08:36.226Z,28.80
2018-05-13T13:11:02.466Z,28.80
2018-05-13T13:13:28.707Z,29.30
2018-05-13T13:15:54.934Z,29.90
2018-05-13T13:18:21.177Z,29.40
2018-05-13T13:20:47.781Z,28.50
2018-05-13T13:23:14.019Z,28.50
2018-05-13T13:25:40.238Z,28.90
2018-05-13T13:28:06.521Z,29.20
2018-05-13T13:30:33.315Z,29.40
2018-05-13T13:32:59.469Z,29.40
2018-05-13T13:35:25.674Z,29.60
2018-05-13T13:37:52.010Z,30.10
2018-05-13T13:40:18.276Z,30.50
2018-05-13T13:42:44.870Z,28.50
2018-05-13T13:45:11.132Z,28.50
2018-05-13T13:47:37.710Z,27.70
2018-05-13T13:50:03.986Z,27.70
2018-05-13T13:52:30.575Z,28.10
2018-05-13T13:54:56.835Z,28.10
2018-05-13T13:57:23.842Z,28.10
2018-05-13T13:59:50.070Z,27.60
2018-05-13T14:02:16.287Z,26.90
2018-05-13T14:04:42.537Z,26.40
2018-05-13T14:07:08.739Z,25.90
2018-05-13T14:09:34.989Z,25.90
2018-05-13T14:12:01.298Z,25.60
2018-05-13T14:14:27.485Z,25.50
2018-05-13T14:16:53.715Z,25.50
2018-05-13T14:19:19.962Z,25.60
2018-05-13T14:21:46.561Z,25.60
2018-05-13T14:24:12.809Z,25.60
2018-05-13T14:26:39.109Z,25.70
2018-05-13T14:29:05.385Z,25.70
2018-05-13T14:31:31.582Z,25.70
2018-05-13T14:33:57.805Z,25.80
2018-05-13T14:36:24.029Z,25.80
2018-05-13T14:38:50.325Z,25.30
2018-05-13T14:41:16.687Z,24.80
2018-05-13T14:43:42.865Z,24.70
2018-05-13T14:46:09.500Z,24.20
2018-05-13T14:48:36.059Z,23.90
2018-05-13T14:51:02.352Z,24.00
2018-05-13T14:53:28.949Z,23.30
2018-05-13T14:55:55.187Z,23.30
2018-05-13T14:58:21.388Z,23.50
2018-05-13T15:00:47.623Z,23.30
2018-05-13T15:03:13.836Z,22.90
2018-05-13T15:05:40.117Z,22.70
2018-05-13T15:08:06.369Z,22.80
2018-05-13T15:10:33.039Z,22.60
2018-05-13T15:13:00.023Z,22.60
2018-05-13T15:15:26.263Z,22.40
2018-05-13T15:17:52.496Z,22.30
2018-05-13T15:20:18.730Z,22.40
2018-05-13T15:22:45.313Z,22.00
2018-05-13T15:25:11.563Z,22.00
2018-05-13T15:27:37.794Z,21.90
2018-05-13T15:30:04.060Z,21.60
2018-05-13T15:32:30.687Z,21.20
2018-05-13T15:34:57.894Z,21.20
2018-05-13T15:37:24.121Z,21.10
2018-05-13T15:39:50.359Z,21.00
2018-05-13T15:42:16.573Z,20.80
2018-05-13T15:44:42.843Z,20.70
2018-05-13T15:47:09.081Z,20.80
2018-05-13T15:49:35.684Z,20.60
2018-05-13T15:52:01.896Z,20.60
2018-05-13T15:54:28.159Z,20.40
2018-05-13T15:56:54.408Z,20.40
2018-05-13T15:59:21.052Z,20.40
2018-05-13T16:01:47.336Z,20.50
2018-05-13T16:04:13.591Z,20.40
2018-05-13T16:06:39.946Z,20.30
2018-05-13T16:09:06.109Z,20.20
2018-05-13T16:11:32.374Z,20.30
2018-05-13T16:13:58.646Z,20.50
2018-05-13T16:16:24.888Z,20.70
2018-05-13T16:18:51.227Z,20.70
2018-05-13T16:21:17.500Z,20.80
2018-05-13T16:23:43.768Z,20.60
2018-05-13T16:26:10.008Z,20.40
2018-05-13T16:28:36.241Z,20.10
2018-05-13T16:31:02.518Z,20.00
2018-05-13T16:33:29.178Z,19.70
2018-05-13T16:35:55.431Z,19.70
2018-05-13T16:38:21.742Z,19.60
2018-05-13T16:40:47.921Z,19.60
2018-05-13T16:43:14.168Z,19.90
2018-05-13T16:45:40.442Z,20.10
2018-05-13T16:48:06.638Z,20.30
2018-05-13T16:50:32.868Z,20.40
2018-05-13T16:52:59.171Z,20.10
2018-05-13T16:55:25.391Z,20.20
2018-05-13T16:57:51.707Z,20.40
2018-05-13T17:00:17.992Z,20.50
2018-05-13T17:02:44.255Z,20.40
2018-05-13T17:05:10.492Z,19.70
2018-05-13T17:07:36.761Z,19.30
2018-05-13T17:10:03.373Z,18.30
2018-05-13T17:12:29.618Z,18.30
2018-05-13T17:14:55.847Z,18.20
2018-05-13T17:17:22.525Z,18.10
2018-05-13T17:19:48.731Z,18.00
2018-05-13T17:22:15.031Z,18.20
2018-05-13T17:24:41.296Z,18.30
2018-05-13T17:27:07.556Z,18.30
2018-05-13T17:29:33.846Z,18.00
2018-05-13T17:32:00.138Z,17.80
2018-05-13T17:34:26.384Z,17.60
2018-05-13T17:36:54.558Z,17.70
2018-05-13T17:39:20.921Z,17.70
2018-05-13T17:41:47.188Z,17.70
2018-05-13T17:44:13.487Z,17.70
2018-05-13T17:46:39.701Z,17.40
2018-05-13T17:49:05.970Z,17.60
2018-05-13T17:51:32.276Z,17.50
2018-05-13T17:53:58.554Z,17.20
2018-05-13T17:56:24.826Z,17.30
2018-05-13T17:58:51.372Z,17.40
2018-05-13T18:01:17.682Z,17.40
2018-05-13T18:03:43.983Z,17.40
2018-05-13T18:06:10.321Z,17.30
2018-05-13T18:08:36.575Z,17.30
2018-05-13T18:11:02.838Z,17.50
2018-05-13T18:13:29.118Z,17.90
2018-05-13T18:15:55.387Z,17.80
2018-05-13T18:18:21.715Z,17.60
2018-05-13T18:20:47.974Z,17.30
2018-05-13T18:23:14.275Z,17.20
2018-05-13T18:25:40.573Z,17.10
2018-05-13T18:28:07.212Z,17.00
2018-05-13T18:30:33.894Z,17.20
2018-05-13T18:33:00.162Z,17.20
2018-05-13T18:35:26.480Z,17.40
2018-05-13T18:37:52.762Z,17.50
2018-05-13T18:40:19.087Z,17.60
2018-05-13T18:42:45.363Z,17.60
2018-05-13T18:45:11.680Z,17.60
2018-05-13T18:47:37.940Z,17.80
2018-05-13T18:50:04.226Z,17.60
2018-05-13T18:52:30.512Z,17.50
2018-05-13T18:54:57.208Z,17.60
2018-05-13T18:57:23.443Z,17.60
2018-05-13T18:59:49.696Z,17.70
2018-05-13T19:02:16.077Z,17.90
2018-05-13T19:04:42.347Z,18.10
2018-05-13T19:07:08.604Z,18.30
2018-05-13T19:09:34.899Z,18.30
2018-05-13T19:12:01.155Z,18.30
2018-05-13T19:14:27.812Z,18.10
2018-05-13T19:16:54.245Z,18.10
2018-05-13T19:19:20.487Z,17.70
2018-05-13T19:21:46.781Z,17.60
2018-05-13T19:24:13.100Z,17.70
2018-05-13T19:26:39.435Z,17.80
2018-05-13T19:29:05.671Z,17.40
2018-05-13T19:31:31.964Z,17.20
2018-05-13T19:33:58.294Z,17.00
2018-05-13T19:36:24.680Z,17.00
2018-05-13T19:38:50.971Z,17.10
2018-05-13T19:41:17.250Z,16.80
2018-05-13T19:43:43.510Z,16.80
2018-05-13T19:46:09.809Z,16.80
2018-05-13T19:48:36.172Z,16.80
2018-05-13T19:51:02.389Z,16.70
2018-05-13T19:53:28.736Z,16.60
2018-05-13T19:55:54.976Z,16.50
2018-05-13T19:58:21.237Z,16.50
2018-05-13T20:00:47.609Z,16.50
2018-05-13T20:03:13.891Z,16.50
2018-05-13T20:05:40.517Z,16.50
2018-05-13T20:08:06.837Z,16.50
2018-05-13T20:10:33.083Z,16.50
2018-05-13T20:12:59.722Z,16.40
2018-05-13T20:15:26.472Z,16.40
2018-05-13T20:17:52.831Z,16.50
2018-05-13T20:20:19.119Z,16.50
2018-05-13T20:22:57.696Z,16.50
2018-05-13T20:25:23.954Z,16.40
2018-05-13T20:27:50.244Z,16.50
2018-05-13T20:30:16.492Z,16.40
2018-05-13T20:32:42.791Z,16.40
2018-05-13T20:35:09.103Z,16.50
2018-05-13T20:37:35.413Z,16.50
2018-05-13T20:40:01.648Z,16.50
2018-05-13T20:42:28.297Z,16.70
2018-05-13T20:44:54.558Z,16.70
2018-05-13T20:47:20.813Z,16.50
2018-05-13T20:49:47.041Z,16.20
2018-05-13T20:52:13.287Z,16.00
2018-05-13T20:54:39.936Z,15.70
2018-05-13T20:57:07.550Z,15.70
2018-05-13T20:59:34.496Z,15.70
2018-05-13T21:02:00.736Z,15.70
2018-05-13T21:04:27.057Z,15.80
2018-05-13T21:06:53.276Z,16.00
2018-05-13T21:09:19.605Z,16.00
2018-05-13T21:11:45.886Z,15.70
2018-05-13T21:14:12.127Z,15.80
2018-05-13T21:16:38.365Z,15.80
2018-05-13T21:19:04.652Z,15.80
2018-05-13T21:21:30.886Z,15.80
2018-05-13T21:23:57.117Z,15.70
2018-05-13T21:26:23.369Z,15.60
2018-05-13T21:28:49.620Z,15.60
2018-05-13T21:31:15.860Z,15.60
2018-05-13T21:33:42.153Z,15.70
2018-05-13T21:36:08.379Z,15.70
2018-05-13T21:38:34.603Z,15.90
2018-05-13T21:41:00.925Z,16.30
2018-05-13T21:43:27.515Z,16.60
2018-05-13T21:45:53.728Z,16.50
2018-05-13T21:48:19.992Z,16.70
2018-05-13T21:50:46.230Z,16.90
2018-05-13T21:53:12.441Z,17.00
2018-05-13T21:55:38.722Z,17.10
2018-05-13T21:58:04.943Z,17.20
2018-05-13T22:00:31.592Z,17.20
2018-05-13T22:02:57.831Z,17.20
2018-05-13T22:05:24.023Z,17.30
2018-05-13T22:07:50.750Z,17.00
2018-05-13T22:10:16.979Z,17.00
2018-05-13T22:12:43.157Z,16.80
2018-05-13T22:15:09.408Z,16.50
2018-05-13T22:17:35.659Z,16.40
2018-05-13T22:20:01.807Z,16.20
2018-05-13T22:22:28.436Z,16.30
2018-05-13T22:24:55.013Z,16.10
2018-05-13T22:27:21.221Z,16.10
2018-05-13T22:29:47.485Z,16.10
2018-05-13T22:32:13.694Z,16.00
2018-05-13T22:34:39.895Z,15.80
2018-05-13T22:37:06.616Z,15.80
2018-05-13T22:39:32.805Z,15.70
2018-05-13T22:41:59.052Z,15.80
2018-05-13T22:44:25.277Z,15.90
2018-05-13T22:46:51.505Z,16.20
2018-05-13T22:49:17.733Z,16.30
2018-05-13T22:51:43.935Z,16.30
2018-05-13T22:54:10.187Z,16.40
2018-05-13T22:56:36.380Z,16.50
2018-05-13T22:59:02.636Z,16.50
2018-05-13T23:01:28.894Z,16.60
2018-05-13T23:03:55.074Z,16.70
2018-05-13T23:06:22.297Z,16.90
2018-05-13T23:08:48.528Z,17.10
2018-05-13T23:11:14.762Z,17.20
2018-05-13T23:13:40.996Z,17.20
2018-05-13T23:16:07.216Z,17.10
2018-05-13T23:18:33.391Z,16.80
2018-05-13T23:20:59.606Z,16.70
2018-05-13T23:23:25.830Z,16.80
2018-05-13T23:25:52.053Z,16.90
2018-05-13T23:28:18.319Z,16.90
2018-05-13T23:30:44.519Z,16.80
2018-05-13T23:33:10.711Z,16.50
2018-05-13T23:35:36.931Z,16.40
2018-05-13T23:38:03.540Z,16.20
2018-05-13T23:40:29.781Z,16.20
2018-05-13T23:42:56.013Z,16.20
2018-05-13T23:45:22.600Z,16.10
2018-05-13T23:47:48.808Z,16.10
2018-05-13T23:50:15.015Z,16.00
2018-05-13T23:52:41.241Z,15.90
2018-05-13T23:55:07.473Z,15.70
2018-05-13T23:57:33.675Z,15.60
2018-05-13T23:59:59.879Z,15.50
